沖縄METAR電文


北大東(RORK)
07/19 18:00
METAR RORK 190900Z AUTO 12009KT 9999 NCD 32/26 Q1012 RMK A2988=

南大東島(ROMD)
07/19 18:00
METAR ROMD 190900Z AUTO 14005KT 100V170 9999 FEW021 31/27 Q1012 RMK
A2989=

嘉手納(RODN)
07/19 17:55
METAR RODN 190855Z 10008KT 10SM FEW030 BKN050 BKN100 33/26 A2982 RMK
AO2A SLP098 T03250260 53002 FZRANO $=

普天間(ROTM)
07/19 17:56
METAR ROTM 190856Z AUTO 13010KT 10SM FEW050 32/27 A2987 RMK AO2
SLP100 6//// T03170267 53002 PNO $=

那覇(ROAH)
07/19 18:00
METAR ROAH 190900Z 15011KT 9999 VCSH FEW030 33/26 Q1010 RMK 2CU030
A2984=

粟国(RORA)
03/25 17:00
RORA 250800Z 13011KT 9999 FEW028 SCT036 22/17 Q1016 RMK A3003=

慶良間(ROKR)
01/01 09:58
ROKR 010058Z 02011KT 9999 FEW036 BKN042 17/10 Q1029 RMK A3039=

久米島(ROKJ)
07/19 18:00
METAR ROKJ 190900Z AUTO 14011KT 9999 NCD 32/26 Q1010 RMK A2984=

宮古(ROMY)
07/19 18:00
METAR ROMY 190900Z 13009KT 100V170 9999 FEW027 32/26 Q1009 RMK
2CU027 A2982=

下地島(RORS)
07/19 18:00
METAR RORS 190900Z 15011KT 9999 VCSH FEW024 FEW030TCU 32/26 Q1009
RMK 1CU024 1TCU030 A2982 TCU NW=

多良間(RORT)
07/19 18:00
METAR RORT 190900Z AUTO 12006KT 080V170 9999 NSC 32/27 Q1009 RMK
A2981=

石垣島(ROIG)
07/19 18:00
METAR ROIG 190900Z 12007KT 9999 VCSH FEW021 32/27 Q1009 RMK 2CU021
A2980=

波照間(RORH)
12/23 18:00
RORH 230900Z 08009KT 9999 FEW022 SCT036 23/17 Q1016 RMK A3002=

与那国島(ROYN)
07/19 18:00
METAR ROYN 190900Z AUTO 15010KT 120V180 9999 FEW022 32/26 Q1008 RMK
A2979=
Copyright(c) 2014 International Meteorological & Oceanographic Consultants Co,.Ltd. All Rights Reserved. Design by http://f-tpl.com